AR95 weather

Arkansas Methodist Hospital Heliport
Paragould, Arkansas, United States

Public forecast

Using degrees Fahrenheit for public forecast. Weather courtesy of forecast.io.

Closest aviation weather report (METAR) to Arkansas Methodist Hospital Heliport

Closest report is Jonesboro Municipal Airport, 15.0 nm (27.8 km) SSW. Retrieved 2020/03/28 13:29 UTC (10 minutes ago):

KJBR 281329Z AUTO 19012G18KT 10SM BKN020 22/18 A2976

Closest aviation forecast (TAF) to Arkansas Methodist Hospital Heliport

Closest forecast is Jonesboro Municipal Airport, 15.0 nm (27.8 km) SSW. Retrieved 2020/03/28 12:22 UTC (1 hour ago):

TAF KJBR 281120Z 2812/2912 19012KT P6SM BKN200 WS020/19050KT FM281300 20011KT P6SM BKN015 BKN150 WS020/21045KT FM281900 20014G23KT P6SM BKN028 FM282000 22015G23KT P6SM VCTS SCT035CB OVC050 TEMPO 2822/2901 24015G30KT 1SM TSRA OVC025CB FM290100 24010G18KT P6SM VCSH BKN070 FM290300 26008KT P6SM SKC